createdAt,value
2019-03-15T11:09:21.301Z,25.58
2019-03-15T11:09:22.454Z,25.56
2019-03-15T11:09:23.603Z,25.56
2019-03-15T11:09:24.763Z,25.58
2019-03-15T11:09:25.930Z,25.56
2019-03-15T11:09:27.085Z,25.58
2019-03-15T11:09:28.244Z,25.56
2019-03-15T11:09:29.409Z,25.58
2019-03-15T11:09:30.575Z,25.58
2019-03-15T11:09:31.749Z,25.56
2019-03-15T11:09:32.921Z,25.58
2019-03-15T11:09:34.081Z,25.55
2019-03-15T11:09:35.253Z,25.56
2019-03-15T11:09:36.409Z,25.55
2019-03-15T11:09:37.586Z,25.55
2019-03-15T11:09:38.749Z,25.54
2019-03-15T11:09:39.897Z,25.54
2019-03-15T11:09:41.095Z,25.55
2019-03-15T11:09:42.249Z,25.55
2019-03-15T11:09:43.396Z,25.55
2019-03-15T11:09:44.551Z,25.56
2019-03-15T11:09:45.698Z,25.55
2019-03-15T11:09:46.845Z,25.56
2019-03-15T11:09:48.004Z,25.56
2019-03-15T11:09:49.171Z,25.56
2019-03-15T11:09:50.312Z,25.56
2019-03-15T11:09:51.459Z,25.58
2019-03-15T11:09:52.599Z,25.58
2019-03-15T11:09:53.732Z,25.59
2019-03-15T11:09:54.867Z,25.58
2019-03-15T11:09:56.025Z,25.59
2019-03-15T11:09:57.184Z,25.58
2019-03-15T11:09:58.343Z,25.59
2019-03-15T11:09:59.505Z,25.59
2019-03-15T11:10:00.664Z,25.59
2019-03-15T11:10:01.825Z,25.61
2019-03-15T11:10:03.019Z,25.59
2019-03-15T11:10:04.178Z,25.59
2019-03-15T11:10:05.412Z,25.59
2019-03-15T11:10:06.556Z,25.61
2019-03-15T11:10:07.705Z,25.61
2019-03-15T11:10:08.844Z,25.61
2019-03-15T11:10:26.163Z,25.59
2019-03-15T11:10:28.083Z,25.58
2019-03-15T11:10:29.228Z,25.58
2019-03-15T11:10:30.386Z,25.58
2019-03-15T11:10:31.534Z,25.56
2019-03-15T11:10:32.680Z,25.56
2019-03-15T11:10:33.843Z,25.56
2019-03-15T11:10:34.996Z,25.58
2019-03-15T11:10:36.150Z,25.56
2019-03-15T11:10:37.335Z,25.58
2019-03-15T11:10:38.511Z,25.56
2019-03-15T11:10:39.667Z,25.56
2019-03-15T11:10:40.815Z,25.56
2019-03-15T11:10:41.962Z,25.58
2019-03-15T11:10:43.110Z,25.56
2019-03-15T11:10:44.278Z,25.56
2019-03-15T11:10:45.430Z,25.58
2019-03-15T11:10:46.589Z,25.56
2019-03-15T11:10:47.764Z,25.56
2019-03-15T11:10:48.913Z,25.56
2019-03-15T11:10:50.081Z,25.58
2019-03-15T11:10:51.251Z,25.56
2019-03-15T11:10:52.398Z,25.58
2019-03-15T11:10:53.564Z,25.56
2019-03-15T11:10:54.711Z,25.55
2019-03-15T11:10:55.858Z,25.55
2019-03-15T11:10:57.008Z,25.56
2019-03-15T11:10:58.165Z,25.55
2019-03-15T11:10:59.312Z,25.56
2019-03-15T11:11:00.467Z,25.54
2019-03-15T11:11:01.623Z,25.56
2019-03-15T11:11:02.782Z,25.55
2019-03-15T11:11:03.937Z,25.55
2019-03-15T11:11:05.085Z,25.54
2019-03-15T11:11:06.231Z,25.55
2019-03-15T11:11:07.387Z,25.56
2019-03-15T11:11:08.573Z,25.55
2019-03-15T12:54:21.005Z,23.73
2019-03-15T12:54:22.155Z,23.71
2019-03-15T12:54:23.296Z,23.73
2019-03-15T12:54:24.450Z,23.74
2019-03-15T12:54:25.589Z,23.73
2019-03-15T12:54:26.727Z,23.73
2019-03-15T12:54:27.876Z,23.73
2019-03-15T12:54:29.014Z,23.73
2019-03-15T12:54:30.157Z,23.73
2019-03-15T12:54:31.307Z,23.74
2019-03-15T12:54:32.448Z,23.74
2019-03-15T12:54:33.605Z,23.73
2019-03-15T12:54:34.755Z,23.73
2019-03-15T12:54:35.893Z,23.74
2019-03-15T12:54:37.037Z,23.74
2019-03-15T12:54:38.208Z,23.74
